sensor_id;sensor_type;location;lat;lon;timestamp;P1;durP1;ratioP1;P2;durP2;ratioP2
64029;SDS011;50277;52.064;4.492;2023-03-31T00:00:24;23.17;;;4.50;;
64029;SDS011;50277;52.064;4.492;2023-03-31T00:02:49;14.07;;;3.10;;
64029;SDS011;50277;52.064;4.492;2023-03-31T00:07:45;15.88;;;3.40;;
64029;SDS011;50277;52.064;4.492;2023-03-31T00:10:12;17.70;;;3.47;;
64029;SDS011;50277;52.064;4.492;2023-03-31T00:12:38;17.25;;;3.60;;
64029;SDS011;50277;52.064;4.492;2023-03-31T00:15:04;19.27;;;3.72;;
64029;SDS011;50277;52.064;4.492;2023-03-31T00:17:29;14.27;;;2.92;;
64029;SDS011;50277;52.064;4.492;2023-03-31T00:19:57;17.80;;;3.78;;
64029;SDS011;50277;52.064;4.492;2023-03-31T00:22:24;20.23;;;4.93;;
64029;SDS011;50277;52.064;4.492;2023-03-31T00:24:51;17.77;;;3.33;;
64029;SDS011;50277;52.064;4.492;2023-03-31T00:27:16;12.90;;;2.92;;
64029;SDS011;50277;52.064;4.492;2023-03-31T00:29:41;16.58;;;3.80;;
64029;SDS011;50277;52.064;4.492;2023-03-31T00:32:07;15.95;;;3.28;;
64029;SDS011;50277;52.064;4.492;2023-03-31T00:34:32;11.43;;;2.78;;
64029;SDS011;50277;52.064;4.492;2023-03-31T00:36:58;15.52;;;3.33;;
64029;SDS011;50277;52.064;4.492;2023-03-31T00:39:26;11.40;;;2.60;;
64029;SDS011;50277;52.064;4.492;2023-03-31T00:41:56;13.30;;;3.03;;
64029;SDS011;50277;52.064;4.492;2023-03-31T00:44:27;12.75;;;3.03;;
64029;SDS011;50277;52.064;4.492;2023-03-31T00:49:30;14.07;;;2.55;;
64029;SDS011;50277;52.064;4.492;2023-03-31T00:54:47;13.85;;;3.35;;
64029;SDS011;50277;52.064;4.492;2023-03-31T00:57:14;9.85;;;3.10;;
64029;SDS011;50277;52.064;4.492;2023-03-31T00:59:45;13.43;;;2.70;;
64029;SDS011;50277;52.064;4.492;2023-03-31T01:02:12;10.20;;;2.70;;
64029;SDS011;50277;52.064;4.492;2023-03-31T01:04:39;12.27;;;3.00;;
64029;SDS011;50277;52.064;4.492;2023-03-31T01:07:09;12.55;;;3.00;;
64029;SDS011;50277;52.064;4.492;2023-03-31T01:09:41;10.88;;;3.10;;
64029;SDS011;50277;52.064;4.492;2023-03-31T01:12:11;17.25;;;2.72;;
64029;SDS011;50277;52.064;4.492;2023-03-31T01:14:37;9.25;;;2.60;;
64029;SDS011;50277;52.064;4.492;2023-03-31T01:17:03;10.35;;;3.08;;
64029;SDS011;50277;52.064;4.492;2023-03-31T01:19:35;15.32;;;3.53;;
64029;SDS011;50277;52.064;4.492;2023-03-31T01:25:13;7.65;;;2.80;;
64029;SDS011;50277;52.064;4.492;2023-03-31T01:37:02;14.80;;;3.28;;
64029;SDS011;50277;52.064;4.492;2023-03-31T01:42:08;13.23;;;2.75;;
64029;SDS011;50277;52.064;4.492;2023-03-31T01:44:45;17.52;;;2.70;;
64029;SDS011;50277;52.064;4.492;2023-03-31T01:47:29;10.02;;;2.63;;
64029;SDS011;50277;52.064;4.492;2023-03-31T01:50:03;14.45;;;3.08;;
64029;SDS011;50277;52.064;4.492;2023-03-31T01:52:42;14.50;;;3.28;;
64029;SDS011;50277;52.064;4.492;2023-03-31T01:55:19;15.63;;;3.90;;
64029;SDS011;50277;52.064;4.492;2023-03-31T01:57:53;14.13;;;3.50;;
64029;SDS011;50277;52.064;4.492;2023-03-31T02:00:27;13.63;;;3.30;;
64029;SDS011;50277;52.064;4.492;2023-03-31T02:05:21;13.63;;;3.35;;
64029;SDS011;50277;52.064;4.492;2023-03-31T02:07:51;14.25;;;3.13;;
64029;SDS011;50277;52.064;4.492;2023-03-31T02:10:19;11.00;;;3.22;;
64029;SDS011;50277;52.064;4.492;2023-03-31T02:12:45;12.93;;;3.72;;
64029;SDS011;50277;52.064;4.492;2023-03-31T02:15:13;9.82;;;3.13;;
64029;SDS011;50277;52.064;4.492;2023-03-31T02:17:42;13.45;;;3.53;;
64029;SDS011;50277;52.064;4.492;2023-03-31T02:20:10;18.42;;;4.18;;
64029;SDS011;50277;52.064;4.492;2023-03-31T02:22:37;19.80;;;3.33;;
64029;SDS011;50277;52.064;4.492;2023-03-31T02:25:05;13.27;;;3.05;;
64029;SDS011;50277;52.064;4.492;2023-03-31T02:27:42;19.23;;;3.67;;
64029;SDS011;50277;52.064;4.492;2023-03-31T02:30:11;15.50;;;3.20;;
64029;SDS011;50277;52.064;4.492;2023-03-31T02:32:38;15.60;;;3.38;;
64029;SDS011;50277;52.064;4.492;2023-03-31T02:35:06;15.93;;;3.10;;
64029;SDS011;50277;52.064;4.492;2023-03-31T02:37:35;14.70;;;3.30;;
64029;SDS011;50277;52.064;4.492;2023-03-31T02:40:04;13.77;;;3.35;;
64029;SDS011;50277;52.064;4.492;2023-03-31T02:42:34;10.90;;;2.92;;
64029;SDS011;50277;52.064;4.492;2023-03-31T02:45:04;12.07;;;3.38;;
64029;SDS011;50277;52.064;4.492;2023-03-31T02:47:31;10.73;;;3.95;;
64029;SDS011;50277;52.064;4.492;2023-03-31T02:49:58;14.95;;;3.53;;
64029;SDS011;50277;52.064;4.492;2023-03-31T03:14:16;15.63;;;2.72;;
64029;SDS011;50277;52.064;4.492;2023-03-31T03:16:47;10.13;;;2.40;;
64029;SDS011;50277;52.064;4.492;2023-03-31T03:19:19;9.70;;;2.50;;
64029;SDS011;50277;52.064;4.492;2023-03-31T03:21:45;9.73;;;2.08;;
64029;SDS011;50277;52.064;4.492;2023-03-31T03:24:11;7.47;;;1.85;;
64029;SDS011;50277;52.064;4.492;2023-03-31T03:26:38;7.30;;;1.98;;
64029;SDS011;50277;52.064;4.492;2023-03-31T03:29:04;7.70;;;1.92;;
64029;SDS011;50277;52.064;4.492;2023-03-31T03:31:29;6.05;;;1.95;;
64029;SDS011;50277;52.064;4.492;2023-03-31T03:33:57;8.00;;;1.88;;
64029;SDS011;50277;52.064;4.492;2023-03-31T03:36:22;6.72;;;1.83;;
64029;SDS011;50277;52.064;4.492;2023-03-31T03:38:48;6.05;;;1.35;;
64029;SDS011;50277;52.064;4.492;2023-03-31T03:41:13;10.00;;;1.30;;
64029;SDS011;50277;52.064;4.492;2023-03-31T03:43:38;5.03;;;1.10;;
64029;SDS011;50277;52.064;4.492;2023-03-31T03:46:04;6.40;;;1.58;;
64029;SDS011;50277;52.064;4.492;2023-03-31T03:48:29;6.22;;;1.60;;
64029;SDS011;50277;52.064;4.492;2023-03-31T03:50:55;5.22;;;1.85;;
64029;SDS011;50277;52.064;4.492;2023-03-31T03:53:23;11.10;;;2.63;;
64029;SDS011;50277;52.064;4.492;2023-03-31T03:55:49;8.85;;;1.92;;
64029;SDS011;50277;52.064;4.492;2023-03-31T03:58:15;13.98;;;2.85;;
64029;SDS011;50277;52.064;4.492;2023-03-31T04:00:41;7.32;;;1.98;;
64029;SDS011;50277;52.064;4.492;2023-03-31T04:03:06;5.50;;;2.08;;
64029;SDS011;50277;52.064;4.492;2023-03-31T04:05:32;9.88;;;2.42;;
64029;SDS011;50277;52.064;4.492;2023-03-31T04:07:57;9.52;;;3.20;;
64029;SDS011;50277;52.064;4.492;2023-03-31T04:10:22;9.23;;;2.47;;
64029;SDS011;50277;52.064;4.492;2023-03-31T04:12:48;9.40;;;3.47;;
64029;SDS011;50277;52.064;4.492;2023-03-31T04:15:13;13.35;;;3.92;;
64029;SDS011;50277;52.064;4.492;2023-03-31T04:17:38;13.82;;;3.63;;
64029;SDS011;50277;52.064;4.492;2023-03-31T04:20:05;16.20;;;3.85;;
64029;SDS011;50277;52.064;4.492;2023-03-31T04:22:33;13.63;;;4.20;;
64029;SDS011;50277;52.064;4.492;2023-03-31T04:25:05;14.35;;;4.28;;
64029;SDS011;50277;52.064;4.492;2023-03-31T04:27:34;15.05;;;4.50;;
64029;SDS011;50277;52.064;4.492;2023-03-31T04:30:00;9.60;;;3.90;;
64029;SDS011;50277;52.064;4.492;2023-03-31T04:32:26;12.13;;;3.75;;
64029;SDS011;50277;52.064;4.492;2023-03-31T04:34:52;18.13;;;4.75;;
64029;SDS011;50277;52.064;4.492;2023-03-31T04:37:27;15.32;;;4.43;;
64029;SDS011;50277;52.064;4.492;2023-03-31T04:39:58;13.88;;;3.45;;
64029;SDS011;50277;52.064;4.492;2023-03-31T04:42:31;15.70;;;4.38;;
64029;SDS011;50277;52.064;4.492;2023-03-31T04:44:56;9.18;;;3.47;;
64029;SDS011;50277;52.064;4.492;2023-03-31T04:47:22;9.30;;;3.15;;
64029;SDS011;50277;52.064;4.492;2023-03-31T04:49:47;9.80;;;3.15;;
64029;SDS011;50277;52.064;4.492;2023-03-31T04:52:12;11.10;;;3.50;;
64029;SDS011;50277;52.064;4.492;2023-03-31T04:54:38;11.15;;;3.35;;
64029;SDS011;50277;52.064;4.492;2023-03-31T04:57:03;11.35;;;3.13;;
64029;SDS011;50277;52.064;4.492;2023-03-31T04:59:28;11.73;;;2.83;;
64029;SDS011;50277;52.064;4.492;2023-03-31T05:01:54;16.55;;;3.83;;
64029;SDS011;50277;52.064;4.492;2023-03-31T05:04:20;9.88;;;3.22;;
64029;SDS011;50277;52.064;4.492;2023-03-31T05:06:45;10.35;;;2.85;;
64029;SDS011;50277;52.064;4.492;2023-03-31T05:09:11;10.30;;;2.70;;
64029;SDS011;50277;52.064;4.492;2023-03-31T05:11:36;9.90;;;2.33;;
64029;SDS011;50277;52.064;4.492;2023-03-31T05:14:02;8.02;;;2.95;;
64029;SDS011;50277;52.064;4.492;2023-03-31T05:16:27;7.80;;;2.60;;
64029;SDS011;50277;52.064;4.492;2023-03-31T05:18:53;6.60;;;2.10;;
64029;SDS011;50277;52.064;4.492;2023-03-31T05:21:19;8.25;;;2.42;;
64029;SDS011;50277;52.064;4.492;2023-03-31T05:23:45;7.38;;;2.20;;
64029;SDS011;50277;52.064;4.492;2023-03-31T05:26:11;8.20;;;2.40;;
64029;SDS011;50277;52.064;4.492;2023-03-31T05:28:37;8.25;;;2.80;;
64029;SDS011;50277;52.064;4.492;2023-03-31T05:31:04;5.00;;;1.90;;
64029;SDS011;50277;52.064;4.492;2023-03-31T05:33:30;4.07;;;1.75;;
64029;SDS011;50277;52.064;4.492;2023-03-31T05:35:56;6.50;;;2.00;;
64029;SDS011;50277;52.064;4.492;2023-03-31T05:38:24;6.68;;;2.17;;
64029;SDS011;50277;52.064;4.492;2023-03-31T05:43:17;6.07;;;2.10;;
64029;SDS011;50277;52.064;4.492;2023-03-31T05:45:43;4.43;;;2.08;;
64029;SDS011;50277;52.064;4.492;2023-03-31T05:48:08;7.50;;;1.55;;
64029;SDS011;50277;52.064;4.492;2023-03-31T05:50:34;4.18;;;1.92;;
64029;SDS011;50277;52.064;4.492;2023-03-31T05:52:59;4.05;;;1.65;;
64029;SDS011;50277;52.064;4.492;2023-03-31T05:55:25;3.88;;;1.45;;
64029;SDS011;50277;52.064;4.492;2023-03-31T05:57:50;3.00;;;1.25;;
64029;SDS011;50277;52.064;4.492;2023-03-31T06:00:16;6.20;;;1.95;;
64029;SDS011;50277;52.064;4.492;2023-03-31T06:02:41;4.07;;;1.50;;
64029;SDS011;50277;52.064;4.492;2023-03-31T06:05:07;3.05;;;1.30;;
64029;SDS011;50277;52.064;4.492;2023-03-31T06:07:32;3.88;;;1.50;;
64029;SDS011;50277;52.064;4.492;2023-03-31T06:09:58;4.20;;;1.38;;
64029;SDS011;50277;52.064;4.492;2023-03-31T06:12:23;5.82;;;1.40;;
64029;SDS011;50277;52.064;4.492;2023-03-31T06:14:48;4.53;;;1.52;;
64029;SDS011;50277;52.064;4.492;2023-03-31T06:17:14;5.15;;;1.40;;
64029;SDS011;50277;52.064;4.492;2023-03-31T06:19:39;3.10;;;1.20;;
64029;SDS011;50277;52.064;4.492;2023-03-31T06:22:04;3.95;;;1.35;;
64029;SDS011;50277;52.064;4.492;2023-03-31T06:24:30;3.85;;;1.15;;
64029;SDS011;50277;52.064;4.492;2023-03-31T06:26:55;6.78;;;1.83;;
64029;SDS011;50277;52.064;4.492;2023-03-31T06:29:20;5.78;;;2.08;;
64029;SDS011;50277;52.064;4.492;2023-03-31T06:31:46;5.03;;;1.55;;
64029;SDS011;50277;52.064;4.492;2023-03-31T06:34:11;3.53;;;1.42;;
64029;SDS011;50277;52.064;4.492;2023-03-31T06:36:36;4.82;;;1.48;;
64029;SDS011;50277;52.064;4.492;2023-03-31T06:39:02;6.70;;;1.50;;
64029;SDS011;50277;52.064;4.492;2023-03-31T06:41:27;4.78;;;1.73;;
64029;SDS011;50277;52.064;4.492;2023-03-31T06:43:53;4.70;;;1.50;;
64029;SDS011;50277;52.064;4.492;2023-03-31T06:46:18;8.90;;;2.15;;
64029;SDS011;50277;52.064;4.492;2023-03-31T06:48:44;4.47;;;1.67;;
64029;SDS011;50277;52.064;4.492;2023-03-31T06:51:10;4.22;;;1.80;;
64029;SDS011;50277;52.064;4.492;2023-03-31T06:53:36;8.80;;;2.28;;
64029;SDS011;50277;52.064;4.492;2023-03-31T06:56:02;6.20;;;2.00;;
64029;SDS011;50277;52.064;4.492;2023-03-31T06:58:28;4.75;;;1.92;;
64029;SDS011;50277;52.064;4.492;2023-03-31T07:00:53;3.00;;;1.65;;
64029;SDS011;50277;52.064;4.492;2023-03-31T07:03:18;9.93;;;2.28;;
64029;SDS011;50277;52.064;4.492;2023-03-31T07:05:48;5.13;;;2.10;;
64029;SDS011;50277;52.064;4.492;2023-03-31T07:08:17;7.75;;;2.20;;
64029;SDS011;50277;52.064;4.492;2023-03-31T07:10:43;5.75;;;2.17;;
64029;SDS011;50277;52.064;4.492;2023-03-31T07:13:11;8.80;;;2.03;;
64029;SDS011;50277;52.064;4.492;2023-03-31T07:15:37;12.38;;;2.35;;
64029;SDS011;50277;52.064;4.492;2023-03-31T07:18:02;4.82;;;2.10;;
64029;SDS011;50277;52.064;4.492;2023-03-31T07:20:28;6.60;;;2.25;;
64029;SDS011;50277;52.064;4.492;2023-03-31T07:22:54;9.65;;;2.50;;
64029;SDS011;50277;52.064;4.492;2023-03-31T07:25:19;7.22;;;2.55;;
64029;SDS011;50277;52.064;4.492;2023-03-31T07:27:45;7.10;;;2.75;;
64029;SDS011;50277;52.064;4.492;2023-03-31T07:30:16;7.80;;;3.20;;
64029;SDS011;50277;52.064;4.492;2023-03-31T07:32:47;9.63;;;2.33;;
64029;SDS011;50277;52.064;4.492;2023-03-31T07:35:14;10.70;;;3.15;;
64029;SDS011;50277;52.064;4.492;2023-03-31T07:37:41;9.52;;;3.08;;
64029;SDS011;50277;52.064;4.492;2023-03-31T07:40:12;8.20;;;2.63;;
64029;SDS011;50277;52.064;4.492;2023-03-31T07:42:40;8.60;;;2.85;;
64029;SDS011;50277;52.064;4.492;2023-03-31T07:45:06;10.25;;;3.25;;
64029;SDS011;50277;52.064;4.492;2023-03-31T07:47:32;8.88;;;2.80;;
64029;SDS011;50277;52.064;4.492;2023-03-31T07:49:58;9.02;;;2.92;;
64029;SDS011;50277;52.064;4.492;2023-03-31T07:52:23;15.18;;;3.25;;
64029;SDS011;50277;52.064;4.492;2023-03-31T07:54:49;10.13;;;2.70;;
64029;SDS011;50277;52.064;4.492;2023-03-31T07:57:14;12.05;;;3.33;;
64029;SDS011;50277;52.064;4.492;2023-03-31T07:59:41;12.38;;;3.92;;
64029;SDS011;50277;52.064;4.492;2023-03-31T08:02:09;16.10;;;4.05;;
64029;SDS011;50277;52.064;4.492;2023-03-31T08:04:35;17.30;;;2.75;;
64029;SDS011;50277;52.064;4.492;2023-03-31T08:07:01;13.35;;;2.88;;
64029;SDS011;50277;52.064;4.492;2023-03-31T08:09:26;11.65;;;3.35;;
64029;SDS011;50277;52.064;4.492;2023-03-31T08:11:52;14.95;;;3.03;;
64029;SDS011;50277;52.064;4.492;2023-03-31T08:14:17;11.52;;;2.97;;
64029;SDS011;50277;52.064;4.492;2023-03-31T08:16:42;9.18;;;2.75;;
64029;SDS011;50277;52.064;4.492;2023-03-31T08:19:08;11.07;;;3.05;;
64029;SDS011;50277;52.064;4.492;2023-03-31T08:21:34;10.95;;;3.35;;
64029;SDS011;50277;52.064;4.492;2023-03-31T08:23:59;11.02;;;2.90;;
64029;SDS011;50277;52.064;4.492;2023-03-31T08:26:24;12.00;;;2.88;;
64029;SDS011;50277;52.064;4.492;2023-03-31T08:28:50;12.00;;;3.47;;
64029;SDS011;50277;52.064;4.492;2023-03-31T08:31:16;11.10;;;3.42;;
64029;SDS011;50277;52.064;4.492;2023-03-31T08:33:43;14.02;;;3.70;;
64029;SDS011;50277;52.064;4.492;2023-03-31T08:36:09;18.20;;;3.47;;
64029;SDS011;50277;52.064;4.492;2023-03-31T08:38:39;14.35;;;3.25;;
64029;SDS011;50277;52.064;4.492;2023-03-31T08:41:06;12.95;;;3.47;;
64029;SDS011;50277;52.064;4.492;2023-03-31T08:43:39;20.48;;;3.92;;
64029;SDS011;50277;52.064;4.492;2023-03-31T08:46:07;25.20;;;4.72;;
64029;SDS011;50277;52.064;4.492;2023-03-31T09:20:47;19.23;;;4.95;;
64029;SDS011;50277;52.064;4.492;2023-03-31T09:23:25;14.90;;;4.07;;
64029;SDS011;50277;52.064;4.492;2023-03-31T09:25:53;21.77;;;5.03;;
64029;SDS011;50277;52.064;4.492;2023-03-31T09:28:21;20.75;;;4.10;;
64029;SDS011;50277;52.064;4.492;2023-03-31T09:30:48;27.00;;;4.32;;
64029;SDS011;50277;52.064;4.492;2023-03-31T09:35:58;23.10;;;4.28;;
64029;SDS011;50277;52.064;4.492;2023-03-31T09:38:23;17.65;;;3.72;;
64029;SDS011;50277;52.064;4.492;2023-03-31T09:40:53;21.50;;;4.20;;
64029;SDS011;50277;52.064;4.492;2023-03-31T09:43:24;22.67;;;4.50;;
64029;SDS011;50277;52.064;4.492;2023-03-31T09:45:51;18.67;;;4.32;;
64029;SDS011;50277;52.064;4.492;2023-03-31T09:48:18;18.77;;;4.43;;
64029;SDS011;50277;52.064;4.492;2023-03-31T09:50:51;20.60;;;4.88;;
64029;SDS011;50277;52.064;4.492;2023-03-31T09:53:20;20.42;;;4.50;;
64029;SDS011;50277;52.064;4.492;2023-03-31T09:55:52;23.05;;;4.13;;
64029;SDS011;50277;52.064;4.492;2023-03-31T09:58:20;23.17;;;4.97;;
64029;SDS011;50277;52.064;4.492;2023-03-31T10:00:56;23.27;;;4.97;;
64029;SDS011;50277;52.064;4.492;2023-03-31T10:03:30;12.98;;;4.03;;
64029;SDS011;50277;52.064;4.492;2023-03-31T10:06:01;21.77;;;4.30;;
64029;SDS011;50277;52.064;4.492;2023-03-31T10:11:16;18.10;;;3.78;;
64029;SDS011;50277;52.064;4.492;2023-03-31T10:14:01;14.15;;;3.88;;
64029;SDS011;50277;52.064;4.492;2023-03-31T10:18:53;15.90;;;3.63;;
64029;SDS011;50277;52.064;4.492;2023-03-31T10:21:23;18.88;;;3.97;;
64029;SDS011;50277;52.064;4.492;2023-03-31T10:23:49;25.02;;;4.80;;
64029;SDS011;50277;52.064;4.492;2023-03-31T10:26:16;22.23;;;3.50;;
64029;SDS011;50277;52.064;4.492;2023-03-31T10:28:43;21.92;;;4.55;;
64029;SDS011;50277;52.064;4.492;2023-03-31T10:31:09;14.38;;;3.95;;
64029;SDS011;50277;52.064;4.492;2023-03-31T10:33:36;15.38;;;3.78;;
64029;SDS011;50277;52.064;4.492;2023-03-31T10:36:14;22.17;;;3.83;;
64029;SDS011;50277;52.064;4.492;2023-03-31T10:38:45;16.90;;;3.28;;
64029;SDS011;50277;52.064;4.492;2023-03-31T10:41:11;15.65;;;3.58;;
64029;SDS011;50277;52.064;4.492;2023-03-31T10:43:43;14.73;;;3.45;;
64029;SDS011;50277;52.064;4.492;2023-03-31T10:46:12;12.27;;;2.80;;
64029;SDS011;50277;52.064;4.492;2023-03-31T10:48:39;16.88;;;3.97;;
64029;SDS011;50277;52.064;4.492;2023-03-31T10:59:11;16.50;;;3.40;;
64029;SDS011;50277;52.064;4.492;2023-03-31T11:01:55;11.80;;;2.72;;
64029;SDS011;50277;52.064;4.492;2023-03-31T11:07:31;9.25;;;2.50;;
64029;SDS011;50277;52.064;4.492;2023-03-31T11:18:13;13.75;;;3.50;;
64029;SDS011;50277;52.064;4.492;2023-03-31T11:21:09;9.50;;;2.75;;
64029;SDS011;50277;52.064;4.492;2023-03-31T11:26:30;11.50;;;2.70;;
64029;SDS011;50277;52.064;4.492;2023-03-31T11:31:58;9.10;;;2.65;;
64029;SDS011;50277;52.064;4.492;2023-03-31T11:40:31;9.98;;;2.40;;
64029;SDS011;50277;52.064;4.492;2023-03-31T11:45:43;6.47;;;2.00;;
64029;SDS011;50277;52.064;4.492;2023-03-31T11:50:57;10.63;;;2.67;;
64029;SDS011;50277;52.064;4.492;2023-03-31T11:53:26;7.68;;;2.67;;
64029;SDS011;50277;52.064;4.492;2023-03-31T11:55:57;6.05;;;1.95;;
64029;SDS011;50277;52.064;4.492;2023-03-31T11:58:34;7.00;;;1.77;;
64029;SDS011;50277;52.064;4.492;2023-03-31T12:01:13;9.85;;;2.00;;
64029;SDS011;50277;52.064;4.492;2023-03-31T12:03:52;9.88;;;2.10;;
64029;SDS011;50277;52.064;4.492;2023-03-31T12:06:19;6.95;;;1.98;;
64029;SDS011;50277;52.064;4.492;2023-03-31T12:09:06;7.13;;;1.73;;
64029;SDS011;50277;52.064;4.492;2023-03-31T12:11:43;7.63;;;2.33;;
64029;SDS011;50277;52.064;4.492;2023-03-31T12:17:11;10.00;;;2.45;;
64029;SDS011;50277;52.064;4.492;2023-03-31T12:19:54;10.55;;;2.17;;
64029;SDS011;50277;52.064;4.492;2023-03-31T12:22:26;9.40;;;2.50;;
64029;SDS011;50277;52.064;4.492;2023-03-31T12:24:53;9.70;;;2.28;;
64029;SDS011;50277;52.064;4.492;2023-03-31T12:27:20;13.02;;;2.65;;
64029;SDS011;50277;52.064;4.492;2023-03-31T12:32:46;9.80;;;2.20;;
64029;SDS011;50277;52.064;4.492;2023-03-31T12:35:25;10.82;;;2.90;;
64029;SDS011;50277;52.064;4.492;2023-03-31T12:46:22;12.88;;;3.10;;
64029;SDS011;50277;52.064;4.492;2023-03-31T12:49:20;9.40;;;2.78;;
64029;SDS011;50277;52.064;4.492;2023-03-31T12:52:03;8.75;;;2.65;;
64029;SDS011;50277;52.064;4.492;2023-03-31T12:59:33;10.00;;;2.78;;
64029;SDS011;50277;52.064;4.492;2023-03-31T13:02:22;9.05;;;1.92;;
64029;SDS011;50277;52.064;4.492;2023-03-31T13:04:47;4.65;;;1.70;;
64029;SDS011;50277;52.064;4.492;2023-03-31T13:09:45;9.60;;;2.30;;
64029;SDS011;50277;52.064;4.492;2023-03-31T13:12:13;7.22;;;1.90;;
64029;SDS011;50277;52.064;4.492;2023-03-31T13:14:41;5.55;;;1.73;;
64029;SDS011;50277;52.064;4.492;2023-03-31T13:19:36;7.05;;;2.05;;
64029;SDS011;50277;52.064;4.492;2023-03-31T13:22:05;8.02;;;2.03;;
64029;SDS011;50277;52.064;4.492;2023-03-31T13:24:30;3.55;;;1.70;;
64029;SDS011;50277;52.064;4.492;2023-03-31T13:26:58;5.65;;;2.22;;
64029;SDS011;50277;52.064;4.492;2023-03-31T13:29:44;7.88;;;1.70;;
64029;SDS011;50277;52.064;4.492;2023-03-31T13:35:02;4.65;;;2.03;;
64029;SDS011;50277;52.064;4.492;2023-03-31T13:53:49;3.47;;;1.60;;
64029;SDS011;50277;52.064;4.492;2023-03-31T13:56:32;6.05;;;1.90;;
64029;SDS011;50277;52.064;4.492;2023-03-31T13:59:18;6.10;;;2.08;;
64029;SDS011;50277;52.064;4.492;2023-03-31T14:04:59;7.20;;;2.13;;
64029;SDS011;50277;52.064;4.492;2023-03-31T14:07:37;6.93;;;1.80;;
64029;SDS011;50277;52.064;4.492;2023-03-31T14:10:25;7.00;;;2.85;;
64029;SDS011;50277;52.064;4.492;2023-03-31T14:13:05;6.55;;;2.28;;
64029;SDS011;50277;52.064;4.492;2023-03-31T14:15:50;7.43;;;2.40;;
64029;SDS011;50277;52.064;4.492;2023-03-31T14:18:27;3.42;;;1.77;;
64029;SDS011;50277;52.064;4.492;2023-03-31T14:21:06;5.93;;;1.90;;
64029;SDS011;50277;52.064;4.492;2023-03-31T14:27:10;5.88;;;1.85;;
64029;SDS011;50277;52.064;4.492;2023-03-31T14:32:12;4.40;;;2.00;;
64029;SDS011;50277;52.064;4.492;2023-03-31T14:37:41;6.70;;;2.45;;
64029;SDS011;50277;52.064;4.492;2023-03-31T14:40:09;9.20;;;2.10;;
64029;SDS011;50277;52.064;4.492;2023-03-31T14:42:38;7.38;;;2.10;;
64029;SDS011;50277;52.064;4.492;2023-03-31T14:45:06;9.43;;;3.28;;
64029;SDS011;50277;52.064;4.492;2023-03-31T14:48:16;7.50;;;2.28;;
64029;SDS011;50277;52.064;4.492;2023-03-31T14:50:41;7.57;;;2.15;;
64029;SDS011;50277;52.064;4.492;2023-03-31T14:53:15;3.83;;;1.83;;
64029;SDS011;50277;52.064;4.492;2023-03-31T14:55:41;8.25;;;2.53;;
64029;SDS011;50277;52.064;4.492;2023-03-31T14:58:07;6.47;;;2.50;;
64029;SDS011;50277;52.064;4.492;2023-03-31T15:00:37;6.13;;;2.28;;
64029;SDS011;50277;52.064;4.492;2023-03-31T15:03:04;8.68;;;2.63;;
64029;SDS011;50277;52.064;4.492;2023-03-31T15:05:32;6.90;;;2.45;;
64029;SDS011;50277;52.064;4.492;2023-03-31T15:08:03;4.95;;;2.22;;
64029;SDS011;50277;52.064;4.492;2023-03-31T15:10:37;6.70;;;3.03;;
64029;SDS011;50277;52.064;4.492;2023-03-31T15:13:08;6.97;;;2.67;;
64029;SDS011;50277;52.064;4.492;2023-03-31T15:15:34;7.43;;;2.67;;
64029;SDS011;50277;52.064;4.492;2023-03-31T15:18:00;6.45;;;2.17;;
64029;SDS011;50277;52.064;4.492;2023-03-31T15:22:53;9.20;;;2.42;;
64029;SDS011;50277;52.064;4.492;2023-03-31T15:25:20;6.53;;;2.25;;
64029;SDS011;50277;52.064;4.492;2023-03-31T15:27:47;6.38;;;2.38;;
64029;SDS011;50277;52.064;4.492;2023-03-31T15:30:16;5.75;;;2.17;;
64029;SDS011;50277;52.064;4.492;2023-03-31T15:32:43;6.38;;;2.25;;
64029;SDS011;50277;52.064;4.492;2023-03-31T15:35:25;7.40;;;2.17;;
64029;SDS011;50277;52.064;4.492;2023-03-31T15:37:53;6.40;;;2.28;;
64029;SDS011;50277;52.064;4.492;2023-03-31T15:40:22;6.03;;;2.22;;
64029;SDS011;50277;52.064;4.492;2023-03-31T15:42:52;6.00;;;2.10;;
64029;SDS011;50277;52.064;4.492;2023-03-31T15:47:48;3.15;;;2.10;;
64029;SDS011;50277;52.064;4.492;2023-03-31T15:50:15;8.93;;;2.53;;
64029;SDS011;50277;52.064;4.492;2023-03-31T15:52:51;5.85;;;2.00;;
64029;SDS011;50277;52.064;4.492;2023-03-31T15:55:28;5.45;;;2.05;;
64029;SDS011;50277;52.064;4.492;2023-03-31T15:57:55;5.25;;;1.75;;
64029;SDS011;50277;52.064;4.492;2023-03-31T16:03:17;7.70;;;1.88;;
64029;SDS011;50277;52.064;4.492;2023-03-31T16:08:21;4.57;;;2.38;;
64029;SDS011;50277;52.064;4.492;2023-03-31T16:10:47;6.88;;;2.53;;
64029;SDS011;50277;52.064;4.492;2023-03-31T16:13:16;7.43;;;2.85;;
64029;SDS011;50277;52.064;4.492;2023-03-31T16:15:47;5.50;;;2.15;;
64029;SDS011;50277;52.064;4.492;2023-03-31T16:18:14;4.60;;;2.67;;
64029;SDS011;50277;52.064;4.492;2023-03-31T16:21:02;4.97;;;2.70;;
64029;SDS011;50277;52.064;4.492;2023-03-31T16:23:30;3.78;;;2.33;;
64029;SDS011;50277;52.064;4.492;2023-03-31T16:25:57;4.55;;;2.60;;
64029;SDS011;50277;52.064;4.492;2023-03-31T16:28:30;6.88;;;2.13;;
64029;SDS011;50277;52.064;4.492;2023-03-31T16:30:57;5.22;;;2.55;;
64029;SDS011;50277;52.064;4.492;2023-03-31T16:35:52;4.93;;;2.60;;
64029;SDS011;50277;52.064;4.492;2023-03-31T16:38:20;3.45;;;2.17;;
64029;SDS011;50277;52.064;4.492;2023-03-31T16:40:47;3.55;;;2.03;;
64029;SDS011;50277;52.064;4.492;2023-03-31T16:45:44;4.75;;;2.28;;
64029;SDS011;50277;52.064;4.492;2023-03-31T16:48:11;5.43;;;2.47;;
64029;SDS011;50277;52.064;4.492;2023-03-31T16:50:37;5.53;;;2.60;;
64029;SDS011;50277;52.064;4.492;2023-03-31T16:53:02;3.22;;;2.40;;
64029;SDS011;50277;52.064;4.492;2023-03-31T16:55:29;6.53;;;2.28;;
64029;SDS011;50277;52.064;4.492;2023-03-31T16:57:55;5.05;;;2.35;;
64029;SDS011;50277;52.064;4.492;2023-03-31T17:00:22;6.03;;;2.15;;
64029;SDS011;50277;52.064;4.492;2023-03-31T17:02:48;3.55;;;1.95;;
64029;SDS011;50277;52.064;4.492;2023-03-31T17:05:13;8.10;;;2.22;;
64029;SDS011;50277;52.064;4.492;2023-03-31T17:07:39;4.32;;;1.80;;
64029;SDS011;50277;52.064;4.492;2023-03-31T17:10:05;5.15;;;2.00;;
64029;SDS011;50277;52.064;4.492;2023-03-31T17:12:31;6.97;;;2.40;;
64029;SDS011;50277;52.064;4.492;2023-03-31T17:14:56;4.50;;;2.05;;
64029;SDS011;50277;52.064;4.492;2023-03-31T17:17:21;6.75;;;2.15;;
64029;SDS011;50277;52.064;4.492;2023-03-31T17:19:47;10.73;;;3.03;;
64029;SDS011;50277;52.064;4.492;2023-03-31T17:22:12;12.80;;;3.00;;
64029;SDS011;50277;52.064;4.492;2023-03-31T17:24:37;13.10;;;3.42;;
64029;SDS011;50277;52.064;4.492;2023-03-31T17:27:03;22.20;;;4.70;;
64029;SDS011;50277;52.064;4.492;2023-03-31T17:29:28;26.98;;;4.88;;
64029;SDS011;50277;52.064;4.492;2023-03-31T17:31:53;16.60;;;4.05;;
64029;SDS011;50277;52.064;4.492;2023-03-31T17:34:19;18.90;;;3.95;;
64029;SDS011;50277;52.064;4.492;2023-03-31T17:36:45;15.80;;;4.28;;
64029;SDS011;50277;52.064;4.492;2023-03-31T17:39:11;13.82;;;4.03;;
64029;SDS011;50277;52.064;4.492;2023-03-31T17:41:37;16.45;;;3.63;;
64029;SDS011;50277;52.064;4.492;2023-03-31T17:44:02;16.20;;;4.25;;
64029;SDS011;50277;52.064;4.492;2023-03-31T17:46:28;18.83;;;4.28;;
64029;SDS011;50277;52.064;4.492;2023-03-31T17:48:54;15.93;;;4.10;;
64029;SDS011;50277;52.064;4.492;2023-03-31T17:51:22;15.52;;;3.92;;
64029;SDS011;50277;52.064;4.492;2023-03-31T17:53:47;14.32;;;4.28;;
64029;SDS011;50277;52.064;4.492;2023-03-31T17:56:13;21.35;;;4.32;;
64029;SDS011;50277;52.064;4.492;2023-03-31T17:58:39;18.15;;;5.07;;
64029;SDS011;50277;52.064;4.492;2023-03-31T18:01:05;24.30;;;5.55;;
64029;SDS011;50277;52.064;4.492;2023-03-31T18:03:32;17.67;;;4.60;;
64029;SDS011;50277;52.064;4.492;2023-03-31T18:06:08;20.17;;;4.78;;